Time;durP1;ratioP1;P1;durP2;ratioP2;P2;SDS_P1;SDS_P2;PMS_P1;PMS_P2;Temp;Humidity;BMP_temperature;BMP_pressure;BME280_temperature;BME280_humidity;BME280_pressure;Samples;Min_cycle;Max_cycle;Signal;HPM_P1;HPM_P2
2022/06/26 00:01:09;;;;;;;6.55;1.40;;;13.00;97.50;;;;;;5058344;28;20087;-67
2022/06/26 00:03:34;;;;;;;12.00;1.58;;;12.90;97.60;;;;;;5042246;28;20029;-67
2022/06/26 00:06:00;;;;;;;7.65;1.30;;;12.80;97.80;;;;;;5042216;28;20017;-67
2022/06/26 00:08:26;;;;;;;13.15;1.67;;;12.80;97.90;;;;;;5042631;28;20088;-67
2022/06/26 00:10:52;;;;;;;11.23;1.60;;;12.80;97.90;;;;;;5042540;28;20378;-67
2022/06/26 00:13:18;;;;;;;4.85;1.38;;;12.80;98.20;;;;;;5057811;28;20235;-67
2022/06/26 00:15:44;;;;;;;11.30;1.35;;;12.80;98.00;;;;;;5042859;28;20216;-67
2022/06/26 00:18:10;;;;;;;10.20;1.42;;;12.80;98.00;;;;;;5043547;28;20048;-67
2022/06/26 00:20:36;;;;;;;12.55;1.77;;;12.80;98.00;;;;;;5058407;28;20037;-67
2022/06/26 00:23:02;;;;;;;11.88;1.98;;;12.80;98.00;;;;;;5042773;28;20036;-66
2022/06/26 00:25:28;;;;;;;13.18;1.70;;;12.70;98.10;;;;;;5042379;28;20041;-66
2022/06/26 00:27:54;;;;;;;8.90;1.42;;;12.60;98.20;;;;;;5043740;28;20079;-67
2022/06/26 00:30:20;;;;;;;8.32;1.40;;;12.60;98.60;;;;;;5042123;28;20328;-67
2022/06/26 00:32:46;;;;;;;11.75;1.58;;;12.60;98.40;;;;;;5043006;28;20051;-66
2022/06/26 00:35:12;;;;;;;7.88;1.33;;;12.50;98.50;;;;;;5043577;28;20324;-67
2022/06/26 00:37:37;;;;;;;14.60;1.75;;;12.50;98.60;;;;;;5043457;28;20028;-66
2022/06/26 00:40:04;;;;;;;12.32;1.92;;;12.50;98.60;;;;;;5043943;28;20032;-67
2022/06/26 00:42:29;;;;;;;7.85;1.60;;;12.50;98.70;;;;;;5043710;28;20083;-66
2022/06/26 00:44:56;;;;;;;12.63;1.98;;;12.50;98.70;;;;;;5043225;28;20033;-66
2022/06/26 00:47:24;;;;;;;8.88;1.42;;;12.50;98.60;;;;;;5042758;28;20321;-67
2022/06/26 00:49:50;;;;;;;9.60;1.58;;;12.50;98.60;;;;;;5043277;28;20038;-66
2022/06/26 00:52:18;;;;;;;8.40;1.63;;;12.50;98.70;;;;;;5043705;28;20029;-66
2022/06/26 00:54:44;;;;;;;9.02;1.55;;;12.50;98.70;;;;;;5043553;28;20174;-67
2022/06/26 00:57:10;;;;;;;10.25;1.50;;;12.50;98.70;;;;;;5043186;28;20029;-67
2022/06/26 00:59:36;;;;;;;16.00;1.50;;;12.50;98.80;;;;;;5043029;28;20037;-67
2022/06/26 01:02:02;;;;;;;8.30;1.42;;;12.50;98.80;;;;;;5058542;28;20305;-66
2022/06/26 01:04:28;;;;;;;9.45;1.50;;;12.50;98.90;;;;;;5043351;28;20029;-66
2022/06/26 01:06:55;;;;;;;8.50;1.45;;;12.50;98.80;;;;;;5043541;28;20213;-66
2022/06/26 01:09:21;;;;;;;11.73;1.67;;;12.50;98.90;;;;;;5047101;28;20064;-66
2022/06/26 01:11:47;;;;;;;11.38;1.40;;;12.60;98.80;;;;;;5062884;28;20071;-66
2022/06/26 01:14:13;;;;;;;12.07;1.60;;;12.70;98.70;;;;;;5062539;28;20025;-67
2022/06/26 01:16:40;;;;;;;16.85;2.08;;;12.70;98.70;;;;;;5062443;28;20032;-66
2022/06/26 01:19:07;;;;;;;8.90;1.45;;;12.70;98.70;;;;;;5062562;28;20034;-66
2022/06/26 01:21:34;;;;;;;14.75;1.17;;;12.80;98.70;;;;;;5062216;28;20017;-67
2022/06/26 01:24:00;;;;;;;17.85;1.48;;;12.90;98.60;;;;;;5047020;28;20025;-66
2022/06/26 01:26:27;;;;;;;9.98;1.45;;;12.90;98.50;;;;;;5047252;28;20068;-66
2022/06/26 01:28:53;;;;;;;6.88;1.08;;;13.00;98.60;;;;;;5062385;28;20339;-66
2022/06/26 01:31:20;;;;;;;12.02;1.40;;;13.10;98.20;;;;;;5045736;28;20088;-66
2022/06/26 01:33:47;;;;;;;9.00;1.58;;;13.10;98.10;;;;;;5062566;28;20021;-67
2022/06/26 01:36:12;;;;;;;9.82;1.35;;;13.10;98.10;;;;;;5046581;28;20022;-66
2022/06/26 01:38:38;;;;;;;10.88;1.40;;;13.20;98.10;;;;;;5046470;28;20247;-66
2022/06/26 01:41:04;;;;;;;6.03;1.40;;;13.20;98.00;;;;;;5062217;28;20097;-66
2022/06/26 01:43:32;;;;;;;10.82;1.52;;;13.20;98.00;;;;;;5046467;28;20025;-66
2022/06/26 01:45:59;;;;;;;12.98;1.58;;;13.30;98.00;;;;;;5045057;28;20037;-67
2022/06/26 01:48:27;;;;;;;11.90;1.45;;;13.30;97.90;;;;;;5045923;28;20246;-66
2022/06/26 01:50:56;;;;;;;8.80;1.35;;;13.40;97.90;;;;;;5046348;28;20033;-67
2022/06/26 01:53:22;;;;;;;10.27;1.35;;;13.50;97.80;;;;;;5046225;28;20100;-66
2022/06/26 01:55:48;;;;;;;4.72;1.30;;;13.50;97.60;;;;;;5061959;28;20064;-67
2022/06/26 01:58:13;;;;;;;9.98;1.60;;;13.50;97.60;;;;;;5046498;28;20204;-67
2022/06/26 02:00:42;;;;;;;16.83;1.35;;;13.50;97.60;;;;;;5046269;28;20025;-67
2022/06/26 02:03:09;;;;;;;14.25;1.90;;;13.50;97.60;;;;;;5046382;28;20076;-67
2022/06/26 02:05:35;;;;;;;9.98;1.35;;;13.60;97.70;;;;;;5061833;28;20021;-66
2022/06/26 02:08:01;;;;;;;11.90;1.90;;;13.60;97.50;;;;;;5045843;28;20048;-67
2022/06/26 02:16:01;;;;;;;13.00;1.60;;;13.50;97.80;;;;;;5044907;28;20031;-66
2022/06/26 02:18:28;;;;;;;12.30;1.90;;;13.50;97.80;;;;;;5045444;28;20029;-66
2022/06/26 02:20:54;;;;;;;12.65;1.70;;;13.60;97.70;;;;;;5045065;28;20026;-67
2022/06/26 02:23:20;;;;;;;9.30;1.73;;;13.70;97.60;;;;;;5046139;28;20017;-67
2022/06/26 02:25:46;;;;;;;9.43;1.15;;;13.60;97.60;;;;;;5045979;28;20027;-66
2022/06/26 02:28:12;;;;;;;9.43;1.58;;;13.50;97.80;;;;;;5060409;28;20018;-67
2022/06/26 02:30:38;;;;;;;12.23;1.73;;;13.50;97.90;;;;;;5044502;28;20224;-66
2022/06/26 02:33:04;;;;;;;9.43;1.52;;;13.60;97.80;;;;;;5043803;28;20037;-67
2022/06/26 02:35:30;;;;;;;12.85;1.88;;;13.60;97.70;;;;;;5045344;28;20025;-67
2022/06/26 02:37:57;;;;;;;13.98;1.55;;;13.50;97.80;;;;;;5045643;28;20025;-67
2022/06/26 02:40:24;;;;;;;14.95;1.67;;;13.50;97.80;;;;;;5061208;28;20021;-66
2022/06/26 02:42:50;;;;;;;9.43;1.58;;;13.50;97.90;;;;;;5044583;28;20093;-66
2022/06/26 02:45:16;;;;;;;9.07;1.90;;;13.40;98.00;;;;;;5045052;28;20022;-66
2022/06/26 02:47:42;;;;;;;10.95;1.63;;;13.40;98.10;;;;;;5045124;28;20028;-66
2022/06/26 02:50:09;;;;;;;12.15;1.52;;;13.40;98.10;;;;;;5045158;28;20025;-67
2022/06/26 02:52:35;;;;;;;14.82;1.60;;;13.30;98.10;;;;;;5060823;28;20334;-66
2022/06/26 02:55:01;;;;;;;13.95;1.48;;;13.30;98.20;;;;;;5045617;28;20029;-66
2022/06/26 02:57:28;;;;;;;8.60;1.25;;;13.30;98.30;;;;;;5045011;28;20032;-66
2022/06/26 02:59:53;;;;;;;9.63;1.55;;;13.20;98.40;;;;;;5045334;28;20025;-66
2022/06/26 03:02:19;;;;;;;10.55;1.35;;;13.20;98.50;;;;;;5045381;28;20021;-66
2022/06/26 03:04:45;;;;;;;15.05;2.10;;;13.10;98.60;;;;;;5060529;28;20092;-66
2022/06/26 03:07:11;;;;;;;12.80;1.40;;;13.10;98.80;;;;;;5060740;28;20024;-66
2022/06/26 03:09:37;;;;;;;17.80;1.38;;;13.10;98.90;;;;;;5044698;28;20064;-66
2022/06/26 03:12:03;;;;;;;8.27;1.58;;;13.10;98.80;;;;;;5043863;28;20327;-67
2022/06/26 03:14:29;;;;;;;10.45;1.70;;;13.10;98.80;;;;;;5044668;28;20182;-66
2022/06/26 03:16:54;;;;;;;15.00;2.00;;;13.10;98.80;;;;;;5044781;28;20053;-66
2022/06/26 03:19:20;;;;;;;13.20;2.17;;;13.10;98.70;;;;;;5044740;28;20028;-67
2022/06/26 03:21:46;;;;;;;13.10;2.17;;;13.20;98.80;;;;;;5044239;28;20033;-67
2022/06/26 03:24:12;;;;;;;12.63;1.70;;;13.20;98.80;;;;;;5044818;28;20212;-66
2022/06/26 03:26:38;;;;;;;16.40;1.98;;;13.10;98.80;;;;;;5043551;28;20056;-66
2022/06/26 03:29:06;;;;;;;11.00;1.77;;;13.20;98.80;;;;;;5059468;28;20216;-67
2022/06/26 03:31:32;;;;;;;9.10;1.50;;;13.30;98.60;;;;;;5044073;28;20144;-66
2022/06/26 03:33:58;;;;;;;13.95;2.65;;;13.40;98.50;;;;;;5058114;28;20017;-66
2022/06/26 03:36:25;;;;;;;8.20;1.50;;;13.40;98.40;;;;;;5060112;28;20021;-66
2022/06/26 03:38:51;;;;;;;9.82;1.65;;;13.40;98.40;;;;;;5059562;28;20029;-67
2022/06/26 03:41:18;;;;;;;10.98;1.95;;;13.40;98.40;;;;;;5060086;28;20021;-66
2022/06/26 03:43:43;;;;;;;12.30;2.00;;;13.30;98.50;;;;;;5059434;28;20028;-67
2022/06/26 03:46:09;;;;;;;11.52;1.80;;;13.20;98.60;;;;;;5044278;28;20048;-67
2022/06/26 03:48:35;;;;;;;12.68;2.45;;;13.10;98.80;;;;;;5059709;28;20427;-66
2022/06/26 03:51:02;;;;;;;13.32;3.30;;;13.10;99.00;;;;;;5043950;28;20040;-67
2022/06/26 03:53:29;;;;;;;9.10;1.40;;;13.00;99.10;;;;;;5059554;28;20044;-67
2022/06/26 03:55:54;;;;;;;13.25;2.03;;;13.00;99.20;;;;;;5042975;28;20252;-67
2022/06/26 03:58:20;;;;;;;14.23;2.00;;;13.00;99.20;;;;;;5043646;28;20028;-67
2022/06/26 04:00:46;;;;;;;10.05;1.63;;;12.90;99.30;;;;;;5044242;28;20025;-67
2022/06/26 04:03:12;;;;;;;16.10;1.92;;;12.80;99.40;;;;;;5042942;28;20025;-67
2022/06/26 04:05:38;;;;;;;10.38;1.63;;;12.80;99.50;;;;;;5044151;28;20022;-67
2022/06/26 04:08:04;;;;;;;7.93;1.38;;;12.80;99.90;;;;;;5059274;28;20022;-66
2022/06/26 04:10:30;;;;;;;16.15;1.48;;;12.90;99.60;;;;;;5042644;28;20033;-67
2022/06/26 04:13:05;;;;;;;7.22;1.20;;;12.90;99.50;;;;;;5059444;28;20092;-66
2022/06/26 04:15:32;;;;;;;15.23;2.00;;;13.00;99.40;;;;;;5042801;28;20029;-67
2022/06/26 04:17:58;;;;;;;12.07;1.98;;;13.00;99.30;;;;;;5059146;28;20021;-67
2022/06/26 04:20:25;;;;;;;12.60;1.60;;;13.10;99.30;;;;;;5043524;28;20056;-67
2022/06/26 04:23:03;;;;;;;12.90;1.55;;;13.10;99.20;;;;;;5042574;28;20037;-67
2022/06/26 04:25:31;;;;;;;19.23;1.90;;;13.30;99.10;;;;;;5059024;28;20021;-66
2022/06/26 04:27:57;;;;;;;13.18;1.98;;;13.30;98.90;;;;;;5059285;28;20085;-66
2022/06/26 04:30:23;;;;;;;13.98;1.52;;;13.30;99.00;;;;;;5043371;28;20033;-67
2022/06/26 04:32:49;;;;;;;9.68;1.52;;;13.20;99.30;;;;;;5041035;28;20046;-66
2022/06/26 04:35:15;;;;;;;15.63;1.52;;;13.10;99.40;;;;;;5043453;28;20036;-66
2022/06/26 04:37:41;;;;;;;8.80;1.33;;;13.20;99.50;;;;;;5058570;28;20025;-66
2022/06/26 04:40:09;;;;;;;7.15;1.60;;;13.20;99.30;;;;;;5058646;28;20032;-66
2022/06/26 04:42:35;;;;;;;7.63;1.38;;;13.40;99.10;;;;;;5059984;28;20044;-67
2022/06/26 04:45:01;;;;;;;13.05;1.45;;;13.60;99.00;;;;;;5063567;28;20052;-66
2022/06/26 04:47:27;;;;;;;10.45;1.73;;;13.70;98.70;;;;;;5079552;28;20017;-66
2022/06/26 04:49:52;;;;;;;6.72;1.25;;;14.00;98.00;;;;;;5045664;28;20448;-67
2022/06/26 04:52:18;;;;;;;10.77;1.63;;;14.10;97.60;;;;;;5048053;28;20021;-67
2022/06/26 04:54:44;;;;;;;12.65;1.65;;;14.30;97.30;;;;;;5047066;28;20021;-67
2022/06/26 04:57:10;;;;;;;14.50;1.75;;;14.40;96.90;;;;;;5046162;28;20033;-67
2022/06/26 04:59:37;;;;;;;11.85;1.63;;;14.40;96.90;;;;;;5046527;28;20092;-67
2022/06/26 05:02:04;;;;;;;12.23;1.40;;;14.30;96.90;;;;;;5047616;28;20030;-66
2022/06/26 05:04:29;;;;;;;11.52;1.40;;;14.30;97.00;;;;;;5047406;28;20044;-66
2022/06/26 05:06:55;;;;;;;8.63;1.33;;;14.30;97.00;;;;;;5047637;28;20325;-67
2022/06/26 05:09:22;;;;;;;8.02;1.50;;;14.30;97.00;;;;;;5047059;28;20036;-66
2022/06/26 05:11:48;;;;;;;9.90;1.33;;;14.30;97.00;;;;;;5046304;28;20029;-66
2022/06/26 05:14:14;;;;;;;15.80;1.58;;;14.20;97.10;;;;;;5047033;28;20033;-66
2022/06/26 05:16:39;;;;;;;11.05;1.50;;;14.30;96.90;;;;;;5047178;28;20126;-67
2022/06/26 05:19:05;;;;;;;10.85;1.35;;;14.40;96.60;;;;;;5046360;28;20090;-66
2022/06/26 05:21:31;;;;;;;8.15;1.38;;;14.40;96.70;;;;;;5045277;28;20048;-66
2022/06/26 05:23:57;;;;;;;4.90;1.27;;;14.50;96.80;;;;;;5047006;28;20048;-66
2022/06/26 05:26:23;;;;;;;10.43;1.50;;;14.50;96.90;;;;;;5047178;28;20021;-67
2022/06/26 05:28:49;;;;;;;13.73;1.85;;;14.50;96.80;;;;;;5045811;28;20029;-66
2022/06/26 05:31:15;;;;;;;10.98;1.92;;;14.40;97.00;;;;;;5046705;28;20025;-66
2022/06/26 05:33:42;;;;;;;9.52;2.00;;;14.40;97.20;;;;;;5044872;28;20048;-66
2022/06/26 05:36:07;;;;;;;13.13;1.70;;;14.40;97.20;;;;;;5045095;28;20027;-67
2022/06/26 05:38:35;;;;;;;10.73;1.80;;;14.40;97.40;;;;;;5046603;28;20029;-67
2022/06/26 05:41:01;;;;;;;14.77;1.70;;;14.50;97.40;;;;;;5046620;28;20013;-66
2022/06/26 05:43:27;;;;;;;10.50;1.90;;;14.70;97.20;;;;;;5045714;28;20080;-66
2022/06/26 05:45:52;;;;;;;9.38;1.33;;;14.70;97.00;;;;;;5046839;28;20018;-67
2022/06/26 05:48:18;;;;;;;10.95;1.85;;;14.80;97.00;;;;;;5046092;28;20053;-66
2022/06/26 05:50:44;;;;;;;12.57;1.63;;;14.90;96.80;;;;;;5046055;28;20267;-66
2022/06/26 05:53:10;;;;;;;18.23;1.55;;;14.90;96.90;;;;;;5045802;28;20059;-67
2022/06/26 05:55:38;;;;;;;10.20;1.77;;;15.00;96.80;;;;;;5061743;28;20033;-67
2022/06/26 05:58:05;;;;;;;10.32;1.92;;;15.10;96.80;;;;;;5046346;28;20033;-67
2022/06/26 06:00:30;;;;;;;15.18;1.40;;;15.20;96.40;;;;;;5046065;28;20359;-67
2022/06/26 06:02:56;;;;;;;6.57;1.10;;;15.30;96.10;;;;;;5046559;28;20037;-67
2022/06/26 06:05:22;;;;;;;8.15;1.45;;;15.40;95.90;;;;;;5046491;28;20241;-67
2022/06/26 06:07:47;;;;;;;10.32;1.50;;;15.40;96.00;;;;;;5046272;28;20032;-67
2022/06/26 06:10:13;;;;;;;12.40;1.40;;;15.40;95.80;;;;;;5046223;28;20048;-66
2022/06/26 06:12:39;;;;;;;9.35;1.60;;;15.40;95.70;;;;;;5046161;28;20216;-67
2022/06/26 06:15:05;;;;;;;11.77;1.60;;;15.40;95.80;;;;;;5046163;28;20315;-67
2022/06/26 06:17:40;;;;;;;8.50;1.52;;;15.40;95.80;;;;;;5046093;28;20243;-67
2022/06/26 06:20:12;;;;;;;9.13;1.40;;;15.50;95.70;;;;;;5059951;28;20093;-67
2022/06/26 06:22:44;;;;;;;10.93;1.83;;;15.60;95.40;;;;;;5060616;28;20216;-67
2022/06/26 06:25:10;;;;;;;9.18;1.48;;;15.60;95.40;;;;;;5046221;28;20033;-67
2022/06/26 06:27:37;;;;;;;8.55;1.75;;;15.60;95.30;;;;;;5061021;28;20033;-67
2022/06/26 06:30:05;;;;;;;8.32;1.58;;;15.50;95.30;;;;;;5045588;28;20049;-67
2022/06/26 06:32:31;;;;;;;9.55;1.52;;;15.40;95.70;;;;;;5044585;28;20193;-67
2022/06/26 06:34:56;;;;;;;9.45;1.65;;;15.40;96.20;;;;;;5042489;28;20136;-67
2022/06/26 06:37:22;;;;;;;12.45;2.00;;;15.30;96.20;;;;;;5045470;28;20025;-67
2022/06/26 06:39:48;;;;;;;13.88;2.35;;;15.40;96.40;;;;;;5045080;28;20029;-67
2022/06/26 06:42:14;;;;;;;9.35;2.00;;;15.50;96.10;;;;;;5060609;28;20029;-67
2022/06/26 06:44:39;;;;;;;9.90;1.58;;;15.70;95.70;;;;;;5060969;28;20028;-67
2022/06/26 06:47:06;;;;;;;12.63;2.03;;;15.90;95.50;;;;;;5060784;28;20300;-67
2022/06/26 06:49:32;;;;;;;10.07;1.60;;;16.00;95.20;;;;;;5060789;28;20045;-66
2022/06/26 06:51:58;;;;;;;9.93;1.85;;;16.20;94.70;;;;;;5044424;28;20313;-67
2022/06/26 06:54:24;;;;;;;10.00;1.60;;;16.20;94.40;;;;;;5060669;28;20013;-67
2022/06/26 06:56:50;;;;;;;10.00;1.88;;;16.40;94.40;;;;;;5045108;28;20021;-67
2022/06/26 06:59:16;;;;;;;12.25;1.95;;;16.30;94.10;;;;;;5045267;28;20033;-67
2022/06/26 07:01:42;;;;;;;11.60;1.50;;;16.10;93.70;;;;;;5045394;28;20033;-67
2022/06/26 07:04:08;;;;;;;9.63;1.67;;;15.90;94.40;;;;;;5044878;28;20017;-67
2022/06/26 07:06:34;;;;;;;11.63;1.48;;;15.80;94.70;;;;;;5044128;28;20304;-67
2022/06/26 07:08:59;;;;;;;9.80;1.40;;;15.70;94.80;;;;;;5060802;28;20028;-67
2022/06/26 07:11:25;;;;;;;8.13;1.90;;;15.80;94.90;;;;;;5044526;28;20084;-67
2022/06/26 07:13:51;;;;;;;10.93;1.67;;;15.90;94.70;;;;;;5044090;28;20103;-67
2022/06/26 07:16:17;;;;;;;10.13;1.83;;;16.00;94.50;;;;;;5044890;28;20032;-67
2022/06/26 07:18:42;;;;;;;5.03;1.45;;;16.10;94.50;;;;;;5043543;28;20044;-67
2022/06/26 07:21:08;;;;;;;9.75;1.60;;;16.10;94.30;;;;;;5059820;28;20021;-67
2022/06/26 07:23:34;;;;;;;13.40;1.75;;;16.30;94.30;;;;;;5060214;28;20045;-67
2022/06/26 07:25:59;;;;;;;8.38;1.60;;;16.30;94.20;;;;;;5044781;28;20100;-67
2022/06/26 07:28:25;;;;;;;12.43;2.05;;;16.30;94.10;;;;;;5044347;28;20017;-68
2022/06/26 07:30:52;;;;;;;16.48;3.25;;;16.20;94.20;;;;;;5044998;28;20036;-67
2022/06/26 07:36:03;;;;;;;15.38;1.92;;;16.00;94.80;;;;;;5041431;28;20094;-68
2022/06/26 07:38:30;;;;;;;8.85;1.88;;;16.00;94.70;;;;;;5044053;28;20028;-67
2022/06/26 07:40:55;;;;;;;10.43;2.13;;;16.00;94.70;;;;;;5044552;28;20021;-68
2022/06/26 07:43:21;;;;;;;11.10;1.75;;;16.10;94.80;;;;;;5043126;28;20028;-68
2022/06/26 07:45:48;;;;;;;11.32;2.30;;;16.30;94.60;;;;;;5043738;28;20060;-67
2022/06/26 07:48:14;;;;;;;12.20;1.85;;;16.50;94.30;;;;;;5043941;28;20099;-68
2022/06/26 07:50:39;;;;;;;10.30;1.67;;;16.50;94.10;;;;;;5044256;28;20037;-66
2022/06/26 07:53:06;;;;;;;12.63;2.85;;;16.70;93.80;;;;;;5042914;28;20046;-66
2022/06/26 07:55:32;;;;;;;13.65;2.00;;;17.00;93.40;;;;;;5044057;28;20049;-68
2022/06/26 07:57:58;;;;;;;17.45;2.10;;;17.20;92.70;;;;;;5043856;28;20268;-68
2022/06/26 08:00:24;;;;;;;13.48;2.05;;;17.40;91.70;;;;;;5044236;28;20309;-68
2022/06/26 08:02:50;;;;;;;16.00;2.22;;;17.40;91.70;;;;;;5042302;28;20017;-68
2022/06/26 08:05:15;;;;;;;14.15;1.98;;;17.30;91.60;;;;;;5043810;28;20075;-67
2022/06/26 08:07:41;;;;;;;12.70;1.85;;;17.40;91.30;;;;;;5043991;28;20308;-68
2022/06/26 08:10:07;;;;;;;16.50;2.45;;;17.40;91.20;;;;;;5043347;28;20032;-68
2022/06/26 08:12:33;;;;;;;14.85;1.98;;;17.30;91.50;;;;;;5043057;28;20028;-68
2022/06/26 08:14:59;;;;;;;16.92;2.28;;;17.30;91.90;;;;;;5043879;28;20029;-67
2022/06/26 08:17:24;;;;;;;12.55;2.20;;;17.20;93.10;;;;;;5059246;28;20018;-68
2022/06/26 08:19:50;;;;;;;16.60;2.70;;;17.10;93.60;;;;;;5043551;28;20211;-68
2022/06/26 08:22:16;;;;;;;9.60;1.90;;;17.00;93.00;;;;;;5043476;28;20025;-67
2022/06/26 08:24:42;;;;;;;11.20;2.28;;;16.60;92.80;;;;;;5044028;28;20312;-68
2022/06/26 08:27:08;;;;;;;10.38;1.70;;;16.40;94.20;;;;;;5043316;28;20040;-67
2022/06/26 08:29:35;;;;;;;11.57;1.85;;;16.20;95.10;;;;;;5042655;28;20225;-66
2022/06/26 08:32:01;;;;;;;6.78;1.75;;;16.10;95.90;;;;;;5043418;28;20030;-66
2022/06/26 08:34:27;;;;;;;9.57;1.48;;;15.90;96.40;;;;;;5043305;28;20044;-68
2022/06/26 08:36:54;;;;;;;9.32;2.45;;;15.90;96.30;;;;;;5041747;28;20040;-68
2022/06/26 08:39:20;;;;;;;12.07;2.00;;;16.20;96.50;;;;;;5043674;28;20092;-68
2022/06/26 08:41:46;;;;;;;10.32;1.77;;;16.30;96.00;;;;;;5059370;28;20091;-68
2022/06/26 08:44:13;;;;;;;10.82;1.90;;;16.30;95.70;;;;;;5075615;28;20326;-67
2022/06/26 08:46:42;;;;;;;8.57;1.67;;;16.40;95.40;;;;;;5074998;28;20045;-67
2022/06/26 08:49:11;;;;;;;10.23;1.70;;;16.50;95.20;;;;;;5042743;28;20064;-68
2022/06/26 08:51:42;;;;;;;9.85;1.95;;;16.70;94.10;;;;;;5043474;28;20117;-68
2022/06/26 08:54:09;;;;;;;7.80;1.67;;;16.90;93.80;;;;;;5058762;28;20033;-66
2022/06/26 08:56:38;;;;;;;12.23;2.13;;;17.00;93.50;;;;;;5043135;28;20053;-67
2022/06/26 08:59:04;;;;;;;13.95;2.33;;;17.20;92.50;;;;;;5043425;28;20081;-67
2022/06/26 09:01:30;;;;;;;9.57;2.72;;;17.30;92.10;;;;;;5043433;28;20347;-67
2022/06/26 09:03:56;;;;;;;11.80;2.17;;;17.40;91.70;;;;;;5058572;28;20029;-67
2022/06/26 09:06:21;;;;;;;8.13;1.63;;;17.50;91.50;;;;;;5059046;28;20020;-67
2022/06/26 09:08:49;;;;;;;8.57;1.80;;;17.60;91.40;;;;;;5043229;28;20037;-67
2022/06/26 09:11:16;;;;;;;12.80;1.77;;;17.70;90.90;;;;;;5041833;28;20067;-66
2022/06/26 09:13:44;;;;;;;13.57;1.75;;;17.80;90.80;;;;;;5058373;28;20075;-69
2022/06/26 09:16:10;;;;;;;11.02;1.98;;;17.90;89.50;;;;;;5025717;28;20096;-66
2022/06/26 09:18:37;;;;;;;13.73;2.33;;;18.20;88.50;;;;;;5043085;28;20030;-67
2022/06/26 09:21:04;;;;;;;15.43;2.67;;;18.50;88.80;;;;;;5057983;28;20032;-66
2022/06/26 09:23:32;;;;;;;13.63;2.10;;;18.70;87.40;;;;;;5043110;28;20029;-66
2022/06/26 09:25:58;;;;;;;9.57;1.70;;;18.70;90.30;;;;;;5043381;28;20017;-69
2022/06/26 09:28:24;;;;;;;9.57;1.45;;;18.40;90.20;;;;;;5059439;28;20041;-66
2022/06/26 09:31:05;;;;;;;10.93;1.80;;;18.20;90.10;;;;;;5045711;28;20194;-66
2022/06/26 09:33:34;;;;;;;7.40;1.53;;;18.00;90.40;;;;;;5045790;28;20343;-68
2022/06/26 09:36:02;;;;;;;11.57;1.77;;;17.70;90.30;;;;;;5045385;28;20250;-66
2022/06/26 09:38:30;;;;;;;7.28;1.45;;;17.60;91.00;;;;;;5044680;28;20032;-66
2022/06/26 09:41:00;;;;;;;8.45;1.98;;;17.60;90.30;;;;;;5046678;28;20009;-67
2022/06/26 09:43:38;;;;;;;8.40;1.95;;;17.40;90.40;;;;;;5045537;28;20021;-66
2022/06/26 09:46:06;;;;;;;7.68;1.25;;;17.40;89.90;;;;;;5045147;28;20049;-68
2022/06/26 09:48:33;;;;;;;7.28;1.33;;;17.50;89.40;;;;;;5062099;28;20063;-66
2022/06/26 09:50:59;;;;;;;8.95;2.13;;;17.60;90.20;;;;;;5046299;28;20072;-66
2022/06/26 09:53:27;;;;;;;7.53;1.42;;;17.90;90.20;;;;;;5044907;28;20088;-67
2022/06/26 09:55:54;;;;;;;6.70;1.45;;;18.20;89.50;;;;;;5059447;28;20240;-66
2022/06/26 09:58:22;;;;;;;8.20;1.73;;;18.50;88.50;;;;;;5026858;28;20112;-66
2022/06/26 10:06:26;;;;;;;8.73;1.10;;;19.00;85.50;;;;;;5043674;28;20017;-68
2022/06/26 10:09:13;;;;;;;10.18;1.83;;;19.10;85.10;;;;;;5044683;28;20033;-67
2022/06/26 10:11:41;;;;;;;7.63;1.52;;;19.00;86.30;;;;;;5057134;28;20285;-67
2022/06/26 10:14:17;;;;;;;10.07;2.00;;;19.00;85.20;;;;;;5059218;28;20025;-68
2022/06/26 10:17:16;;;;;;;12.25;2.08;;;19.20;85.80;;;;;;5059255;28;20102;-68
2022/06/26 10:20:02;;;;;;;10.80;2.05;;;19.30;86.00;;;;;;5042557;28;20088;-67
2022/06/26 10:22:37;;;;;;;11.23;2.00;;;19.30;85.60;;;;;;5044261;28;20045;-68
2022/06/26 10:25:05;;;;;;;10.80;1.70;;;19.10;88.10;;;;;;5044196;28;20021;-68
2022/06/26 10:27:33;;;;;;;9.63;2.20;;;19.00;90.80;;;;;;5044434;28;20033;-67
2022/06/26 10:30:11;;;;;;;6.55;1.70;;;18.60;90.80;;;;;;5044694;28;20029;-67
2022/06/26 10:32:37;;;;;;;12.40;2.25;;;18.40;90.90;;;;;;5044955;28;20097;-67
2022/06/26 10:35:04;;;;;;;9.02;1.48;;;18.40;91.00;;;;;;5045343;28;20354;-66
2022/06/26 10:37:48;;;;;;;10.98;1.42;;;18.70;88.80;;;;;;5060807;28;20021;-67
2022/06/26 10:42:52;;;;;;;11.38;1.70;;;19.10;86.40;;;;;;5059906;28;20224;-68
2022/06/26 10:43:04;;;;;;;7.50;1.60;;;19.40;83.20;;;;;;5045177;28;20093;-68
2022/06/26 10:45:37;;;;;;;9.05;1.63;;;19.30;84.30;;;;;;5045608;28;20025;-68
2022/06/26 10:48:07;;;;;;;6.88;1.77;;;19.20;85.20;;;;;;5044041;28;20029;-68
2022/06/26 10:50:36;;;;;;;10.52;1.80;;;19.00;85.50;;;;;;5043980;28;20033;-68
2022/06/26 10:53:24;;;;;;;11.30;1.73;;;18.60;90.90;;;;;;5045926;28;20219;-68
2022/06/26 10:55:53;;;;;;;12.77;1.55;;;17.90;93.10;;;;;;5060602;28;20028;-67
2022/06/26 10:58:28;;;;;;;12.15;1.98;;;17.50;94.40;;;;;;5044618;28;20127;-68
2022/06/26 11:00:56;;;;;;;15.63;2.00;;;17.30;95.10;;;;;;5060606;28;20035;-67
2022/06/26 11:03:23;;;;;;;6.93;1.70;;;17.30;94.90;;;;;;5060651;28;20029;-67
2022/06/26 11:05:51;;;;;;;7.38;2.42;;;17.30;95.90;;;;;;5043818;28;20022;-67
2022/06/26 11:08:38;;;;;;;12.13;2.20;;;17.30;95.30;;;;;;5043969;28;20071;-69
2022/06/26 11:11:07;;;;;;;12.00;2.00;;;17.20;96.10;;;;;;5043251;28;20030;-67
2022/06/26 11:13:35;;;;;;;12.90;2.03;;;17.00;97.00;;;;;;5044914;28;20055;-67
2022/06/26 11:16:02;;;;;;;11.57;2.50;;;16.60;97.90;;;;;;5044819;28;20132;-66
2022/06/26 11:18:36;;;;;;;11.95;2.50;;;16.60;98.40;;;;;;5060771;28;20032;-67
2022/06/26 11:21:02;;;;;;;10.13;2.35;;;16.80;98.30;;;;;;5059835;28;20025;-67
2022/06/26 11:23:32;;;;;;;12.57;1.80;;;17.00;97.70;;;;;;5060368;28;20017;-67
2022/06/26 11:26:14;;;;;;;11.70;1.90;;;17.20;97.50;;;;;;5044661;28;20196;-67
2022/06/26 11:28:43;;;;;;;9.75;1.63;;;17.40;96.70;;;;;;5060248;28;20025;-67
2022/06/26 11:31:18;;;;;;;10.13;1.40;;;17.90;96.70;;;;;;5060164;28;20304;-68
2022/06/26 11:33:44;;;;;;;5.97;1.45;;;18.10;95.60;;;;;;5043083;28;20026;-68
2022/06/26 11:36:14;;;;;;;11.57;1.80;;;18.20;95.30;;;;;;5044422;28;20035;-69
2022/06/26 11:38:47;;;;;;;9.70;1.80;;;18.40;95.40;;;;;;5042977;28;20071;-68
2022/06/26 11:41:13;;;;;;;9.93;2.10;;;18.30;94.90;;;;;;5059810;28;20029;-68
2022/06/26 11:43:46;;;;;;;12.60;2.05;;;18.20;95.00;;;;;;5044369;28;20025;-68
2022/06/26 11:46:11;;;;;;;8.43;2.05;;;18.20;95.60;;;;;;5059701;28;20028;-68
2022/06/26 11:48:37;;;;;;;10.27;1.80;;;18.40;96.20;;;;;;5044235;28;20041;-68
2022/06/26 11:51:03;;;;;;;14.65;1.92;;;18.40;95.60;;;;;;5043601;28;20036;-67
2022/06/26 11:53:31;;;;;;;9.63;2.05;;;18.50;94.90;;;;;;5043901;28;20304;-68
2022/06/26 11:56:00;;;;;;;8.88;1.75;;;18.50;94.30;;;;;;5043061;28;20046;-67
2022/06/26 11:58:30;;;;;;;9.50;1.95;;;18.40;94.10;;;;;;5043943;28;20024;-68
2022/06/26 12:01:05;;;;;;;11.52;1.80;;;18.50;93.40;;;;;;5042931;28;20025;-68
2022/06/26 12:03:30;;;;;;;14.43;1.90;;;18.30;94.40;;;;;;5044327;28;20035;-66
2022/06/26 12:05:56;;;;;;;14.50;2.30;;;17.80;95.50;;;;;;5043975;28;20030;-67
2022/06/26 12:08:22;;;;;;;19.95;2.88;;;17.50;96.40;;;;;;5059587;28;20047;-68
2022/06/26 12:10:50;;;;;;;12.50;2.83;;;17.20;97.50;;;;;;5043557;28;20043;-67
2022/06/26 12:13:27;;;;;;;15.35;2.42;;;17.40;98.70;;;;;;5043901;28;20040;-67
2022/06/26 12:15:59;;;;;;;14.95;2.47;;;17.60;98.10;;;;;;5059172;28;20026;-68
2022/06/26 12:18:26;;;;;;;10.13;1.83;;;17.80;98.30;;;;;;5044296;28;20036;-68
2022/06/26 12:20:52;;;;;;;9.52;2.08;;;18.20;97.30;;;;;;5058873;28;20131;-67
2022/06/26 12:23:28;;;;;;;12.52;2.35;;;18.30;96.60;;;;;;5043500;28;20025;-67
2022/06/26 12:26:04;;;;;;;12.13;1.80;;;18.50;96.80;;;;;;5058042;28;20029;-68
2022/06/26 12:28:29;;;;;;;6.72;1.83;;;18.40;96.50;;;;;;5058761;28;20079;-67
2022/06/26 12:30:55;;;;;;;11.35;2.15;;;18.70;97.00;;;;;;5042418;28;20034;-68
2022/06/26 12:33:21;;;;;;;10.88;2.20;;;18.80;97.30;;;;;;5043528;28;20324;-68
2022/06/26 12:35:47;;;;;;;12.98;2.38;;;18.80;96.80;;;;;;5042473;28;20045;-69
2022/06/26 12:38:12;;;;;;;14.77;2.67;;;18.80;96.60;;;;;;5058680;28;20212;-67
2022/06/26 12:40:38;;;;;;;11.23;2.08;;;18.80;96.30;;;;;;5041726;28;20024;-68
2022/06/26 12:43:04;;;;;;;10.57;2.20;;;19.00;96.10;;;;;;5043703;28;20136;-67
2022/06/26 12:45:30;;;;;;;7.60;1.83;;;19.30;96.20;;;;;;5043668;28;20025;-66
2022/06/26 12:47:55;;;;;;;10.80;1.85;;;19.40;93.10;;;;;;5043150;28;20243;-68
2022/06/26 12:50:21;;;;;;;15.80;2.15;;;19.20;92.10;;;;;;5043436;28;20327;-68
2022/06/26 12:52:47;;;;;;;13.88;2.60;;;19.30;92.00;;;;;;5043967;28;20075;-68
2022/06/26 12:55:13;;;;;;;12.15;2.70;;;19.30;91.60;;;;;;5042128;28;20017;-68